createdAt,value
2019-02-21T00:04:03.314Z,13.90
2019-02-21T00:09:07.443Z,14.13
2019-02-21T00:14:11.082Z,14.47
2019-02-21T00:19:14.501Z,13.40
2019-02-21T00:24:17.910Z,13.77
2019-02-21T00:29:21.563Z,13.00
2019-02-21T00:34:25.259Z,14.97
2019-02-21T00:39:28.335Z,12.97
2019-02-21T00:44:31.737Z,13.90
2019-02-21T00:49:35.148Z,14.20
2019-02-21T00:54:38.611Z,13.40
2019-02-21T00:59:42.027Z,13.33
2019-02-21T01:04:45.202Z,13.60
2019-02-21T01:09:48.667Z,14.30
2019-02-21T01:14:51.746Z,15.10
2019-02-21T01:19:55.471Z,14.20
2019-02-21T01:24:59.187Z,14.40
2019-02-21T01:30:02.319Z,13.37
2019-02-21T01:35:06.910Z,14.73
2019-02-21T01:40:10.033Z,14.70
2019-02-21T01:45:13.114Z,15.63
2019-02-21T01:50:16.197Z,14.03
2019-02-21T01:55:20.088Z,14.37
2019-02-21T02:00:23.566Z,14.50
2019-02-21T02:05:27.330Z,14.47
2019-02-21T02:10:31.050Z,14.60
2019-02-21T02:15:34.482Z,14.17
2019-02-21T02:20:38.264Z,14.27
2019-02-21T02:25:41.377Z,13.60
2019-02-21T02:30:44.786Z,14.40
2019-02-21T02:35:48.427Z,14.27
2019-02-21T02:40:51.841Z,13.97
2019-02-21T02:45:55.572Z,14.27
2019-02-21T02:50:58.643Z,13.83
2019-02-21T02:56:02.063Z,13.53
2019-02-21T03:01:05.195Z,14.43
2019-02-21T03:06:08.607Z,13.47
2019-02-21T03:11:11.686Z,14.30
2019-02-21T03:16:15.147Z,13.93
2019-02-21T03:21:18.859Z,13.07
2019-02-21T03:26:22.289Z,13.87
2019-02-21T03:31:25.940Z,14.37
2019-02-21T03:36:29.080Z,12.95
2019-02-21T03:41:32.656Z,14.17
2019-02-21T03:46:36.047Z,13.07
2019-02-21T03:51:39.463Z,13.60
2019-02-21T03:56:43.767Z,14.33
2019-02-21T04:01:47.508Z,14.50
2019-02-21T04:06:51.242Z,13.60
2019-02-21T04:11:54.658Z,13.20
2019-02-21T04:16:57.817Z,14.30
2019-02-21T04:22:00.894Z,13.63
2019-02-21T04:27:04.691Z,13.87
2019-02-21T04:32:16.672Z,13.70
2019-02-21T04:37:13.266Z,14.83
2019-02-21T04:42:17.705Z,14.73
2019-02-21T04:47:21.418Z,14.73
2019-02-21T04:52:24.744Z,14.10
2019-02-21T04:57:28.154Z,14.20
2019-02-21T05:02:31.863Z,14.30
2019-02-21T05:07:35.374Z,14.27
2019-02-21T05:12:38.792Z,15.43
2019-02-21T05:17:42.194Z,15.90
2019-02-21T05:22:45.609Z,14.80
2019-02-21T05:27:50.405Z,15.87
2019-02-21T05:32:58.131Z,15.80
2019-02-21T05:38:09.235Z,15.63
2019-02-21T05:43:17.817Z,15.70
2019-02-21T05:48:25.826Z,15.70
2019-02-21T05:53:36.587Z,16.02
2019-02-21T05:58:53.991Z,16.53
2019-02-21T06:03:59.009Z,16.53
2019-02-21T06:09:03.775Z,16.23
2019-02-21T06:14:14.598Z,15.83
2019-02-21T06:19:19.662Z,15.40
2019-02-21T06:24:30.467Z,16.60
2019-02-21T06:29:35.518Z,16.70
2019-02-21T06:34:38.872Z,18.10
2019-02-21T06:39:42.290Z,16.30
2019-02-21T06:44:45.751Z,16.43
2019-02-21T06:49:49.208Z,15.67
2019-02-21T06:54:52.619Z,16.77
2019-02-21T06:59:56.015Z,17.83
2019-02-21T07:04:59.097Z,17.65
2019-02-21T07:10:02.505Z,16.27
2019-02-21T07:15:08.650Z,16.93
2019-02-21T07:20:12.978Z,15.80
2019-02-21T07:25:17.926Z,16.20
2019-02-21T07:30:23.257Z,16.07
2019-02-21T07:35:26.480Z,16.80
2019-02-21T07:40:29.826Z,17.07
2019-02-21T07:45:36.234Z,17.27
2019-02-21T07:50:38.450Z,17.00
2019-02-21T07:55:41.534Z,24.23
2019-02-21T08:00:44.869Z,17.97
2019-02-21T08:05:48.266Z,16.83
2019-02-21T08:10:51.350Z,17.17
2019-02-21T08:15:54.756Z,16.50
2019-02-21T08:20:58.172Z,16.90
2019-02-21T08:26:01.598Z,17.37
2019-02-21T08:31:04.997Z,17.50
2019-02-21T08:36:08.707Z,16.33
2019-02-21T08:41:14.488Z,18.13
2019-02-21T08:46:18.338Z,17.10
2019-02-21T08:51:21.592Z,17.80
2019-02-21T08:56:25.339Z,17.50
2019-02-21T09:01:28.761Z,18.27
2019-02-21T09:06:32.492Z,17.20
2019-02-21T09:11:35.928Z,16.53
2019-02-21T09:16:39.619Z,16.23
2019-02-21T09:21:42.936Z,17.87
2019-02-21T09:26:46.006Z,18.17
2019-02-21T09:31:49.415Z,17.57
2019-02-21T09:36:52.486Z,17.20
2019-02-21T09:41:57.444Z,17.33
2019-02-21T09:47:00.835Z,16.90
2019-02-21T09:52:04.001Z,16.67
2019-02-21T09:57:13.195Z,16.50
2019-02-21T10:02:12.596Z,17.27
2019-02-21T10:07:15.675Z,15.90
2019-02-21T10:12:19.127Z,17.27
2019-02-21T10:17:22.549Z,17.33
2019-02-21T10:22:26.284Z,16.43
2019-02-21T10:27:29.847Z,17.07
2019-02-21T10:32:33.259Z,18.00
2019-02-21T10:37:36.678Z,16.63
2019-02-21T10:42:40.327Z,17.33
2019-02-21T10:47:43.806Z,17.50
2019-02-21T10:52:47.597Z,18.93
2019-02-21T10:57:50.992Z,18.63
2019-02-21T11:02:54.808Z,18.83
2019-02-21T11:07:58.212Z,19.33
2019-02-21T11:13:01.290Z,19.67
2019-02-21T11:18:04.775Z,20.70
2019-02-21T11:23:08.251Z,22.77
2019-02-21T11:28:11.662Z,22.97
2019-02-21T11:33:14.757Z,22.20
2019-02-21T11:38:18.162Z,21.10
2019-02-21T11:43:21.570Z,21.93
2019-02-21T11:48:25.337Z,20.60
2019-02-21T11:53:28.987Z,21.77
2019-02-21T11:58:32.065Z,21.60
2019-02-21T12:03:35.145Z,21.27
2019-02-21T12:08:38.563Z,21.33
2019-02-21T12:13:42.032Z,22.23
2019-02-21T12:18:45.114Z,21.23
2019-02-21T12:23:48.568Z,22.40
2019-02-21T12:28:52.070Z,21.97
2019-02-21T12:33:55.491Z,21.87
2019-02-21T12:38:58.898Z,21.20
2019-02-21T12:44:02.321Z,21.30
2019-02-21T12:49:05.709Z,21.80
2019-02-21T12:54:09.423Z,20.97
2019-02-21T12:59:12.919Z,20.83
2019-02-21T13:04:16.363Z,21.23
2019-02-21T13:09:19.786Z,21.77
2019-02-21T13:14:23.233Z,19.27
2019-02-21T13:19:26.646Z,18.40
2019-02-21T13:24:30.327Z,18.43
2019-02-21T13:29:34.055Z,18.73
2019-02-21T13:34:37.487Z,18.77
2019-02-21T13:39:40.804Z,17.27
2019-02-21T13:44:44.267Z,18.87
2019-02-21T13:49:47.694Z,17.27
2019-02-21T13:54:51.128Z,18.33
2019-02-21T13:59:54.544Z,18.60
2019-02-21T14:04:58.886Z,17.90
2019-02-21T14:10:02.515Z,18.73
2019-02-21T14:15:21.163Z,20.30
2019-02-21T14:20:24.894Z,22.07
2019-02-21T14:25:29.821Z,21.60
2019-02-21T14:30:32.778Z,22.57
2019-02-21T14:35:36.461Z,23.63
2019-02-21T14:40:39.888Z,23.47
2019-02-21T14:45:43.315Z,23.10
2019-02-21T14:50:46.752Z,23.67
2019-02-21T14:55:50.431Z,25.53
2019-02-21T15:00:53.512Z,27.07
2019-02-21T15:05:56.859Z,26.30
2019-02-21T15:11:01.512Z,25.87
2019-02-21T15:16:05.179Z,26.37
2019-02-21T15:21:08.935Z,25.27
2019-02-21T15:26:12.657Z,25.60
2019-02-21T15:31:16.086Z,26.30
2019-02-21T15:36:19.496Z,24.83
2019-02-21T15:41:23.225Z,25.37
2019-02-21T15:46:26.308Z,25.07
2019-02-21T15:51:29.722Z,25.37
2019-02-21T15:56:32.851Z,26.00
2019-02-21T16:01:46.908Z,25.47
2019-02-21T16:06:51.067Z,26.13
2019-02-21T16:11:46.527Z,24.97
2019-02-21T16:16:49.992Z,25.10
2019-02-21T16:21:53.406Z,25.77
2019-02-21T16:26:56.840Z,24.10
2019-02-21T16:32:01.370Z,25.97
2019-02-21T16:37:04.446Z,24.30
2019-02-21T16:42:07.862Z,25.87
2019-02-21T16:47:11.202Z,24.13
2019-02-21T16:52:14.653Z,28.00
2019-02-21T16:57:18.026Z,26.20
2019-02-21T17:02:21.103Z,26.37
2019-02-21T17:07:24.518Z,28.37
2019-02-21T17:12:30.885Z,27.43
2019-02-21T17:17:32.790Z,28.37
2019-02-21T17:22:36.524Z,26.93
2019-02-21T17:27:39.938Z,28.53
2019-02-21T17:32:43.358Z,28.47
2019-02-21T17:37:46.440Z,29.07
2019-02-21T17:42:50.174Z,27.83
2019-02-21T17:47:54.957Z,29.00
2019-02-21T17:52:58.647Z,30.37
2019-02-21T17:58:01.727Z,29.97
2019-02-21T18:03:05.081Z,29.57
2019-02-21T18:08:08.496Z,29.20
2019-02-21T18:13:11.578Z,30.60
2019-02-21T18:18:15.333Z,29.37
2019-02-21T18:23:18.754Z,30.63
2019-02-21T18:28:22.166Z,29.40
2019-02-21T18:33:25.239Z,28.57
2019-02-21T18:38:28.581Z,29.60
2019-02-21T18:43:31.655Z,30.37
2019-02-21T18:48:34.735Z,30.97
2019-02-21T18:53:37.814Z,30.40
2019-02-21T18:58:40.898Z,29.50
2019-02-21T19:03:44.318Z,30.53
2019-02-21T19:08:47.762Z,31.23
2019-02-21T19:13:51.448Z,29.73
2019-02-21T19:18:54.874Z,27.00
2019-02-21T19:23:58.181Z,25.27
2019-02-21T19:29:01.599Z,24.20
2019-02-21T19:34:05.249Z,24.13
2019-02-21T19:39:08.931Z,22.83
2019-02-21T19:44:12.414Z,22.27
2019-02-21T19:49:16.178Z,22.23
2019-02-21T19:54:20.005Z,22.40
2019-02-21T19:59:23.504Z,21.63
2019-02-21T20:04:26.833Z,22.80
2019-02-21T20:09:30.280Z,22.30
2019-02-21T20:14:33.670Z,22.30
2019-02-21T20:19:37.422Z,23.53
2019-02-21T20:24:40.799Z,23.63
2019-02-21T20:29:43.888Z,24.83
2019-02-21T20:34:47.212Z,24.23
2019-02-21T20:39:50.305Z,23.30
2019-02-21T20:44:53.643Z,22.93
2019-02-21T20:49:57.351Z,22.73
2019-02-21T20:55:00.811Z,23.03
2019-02-21T21:00:06.579Z,22.93
2019-02-21T21:05:09.682Z,24.07
2019-02-21T21:10:16.938Z,23.73
2019-02-21T21:15:20.674Z,24.40
2019-02-21T21:20:25.927Z,24.57
2019-02-21T21:25:31.865Z,24.83
2019-02-21T21:30:35.022Z,26.43
2019-02-21T21:35:38.199Z,28.07
2019-02-21T21:40:41.953Z,26.27
2019-02-21T21:45:45.370Z,28.77
2019-02-21T21:50:49.046Z,29.40
2019-02-21T21:55:52.450Z,30.40
2019-02-21T22:00:56.115Z,29.73
2019-02-21T22:05:59.185Z,30.03
2019-02-21T22:11:02.851Z,31.30
2019-02-21T22:16:05.926Z,33.13
2019-02-21T22:21:09.562Z,32.43
2019-02-21T22:26:12.975Z,31.87
2019-02-21T22:31:16.711Z,34.83
2019-02-21T22:36:20.119Z,35.30
2019-02-21T22:41:23.765Z,37.77
2019-02-21T22:46:26.834Z,39.37
2019-02-21T22:51:29.962Z,38.67
2019-02-21T22:56:33.686Z,38.87
2019-02-21T23:01:36.842Z,39.87
2019-02-21T23:06:41.506Z,41.20
2019-02-21T23:11:44.897Z,40.53
2019-02-21T23:16:48.587Z,41.43
2019-02-21T23:21:51.994Z,41.93
2019-02-21T23:26:55.403Z,40.87
2019-02-21T23:31:59.148Z,42.20
2019-02-21T23:37:02.535Z,40.87
2019-02-21T23:42:05.947Z,41.27
2019-02-21T23:47:09.670Z,42.30
2019-02-21T23:52:13.402Z,42.80
2019-02-21T23:57:16.738Z,43.77
